Погода Тистла-де-Геррерона 2 недели

Герреро, Мексика

05 - 18 декабря
  • 05декабря
    Сегодня
    +12°
    +31°
    Ясно и безоблачно
    ВремяПогодаТемператураВлажностьДавлениеВетер, м/сВероятность осадков
    00:00Ясно и безоблачно+17°C74 %651 мм0.4 м/с2 %
    03:00Ясно и безоблачно+16°C77 %650 мм0.2 м/с2 %
    06:00Ясно и безоблачно+14°C82 %650 мм1.0 м/с2 %
    09:00Ясно и безоблачно+18°C58 %652 мм1.9 м/с2 %
    12:00Ясно и безоблачно+27°C36 %654 мм1.9 м/с2 %
    15:00Ясно и безоблачно+31°C28 %652 мм0.5 м/с2 %
    18:00Ясно и безоблачно+25°C64 %651 мм1.8 м/с2 %
    21:00Ясно и безоблачно+20°C84 %651 мм0.7 м/с2 %
  • 06декабря
    Вторник
    +15°
    +30°
    Практически безоблачно
    ВремяПогодаТемператураВлажностьДавлениеВетер, м/сВероятность осадков
    00:00Ясно и безоблачно+18°C90 %651 мм1.0 м/с2 %
    03:00Практически безоблачно+16°C94 %650 мм0.8 м/с2 %
    06:00Небольшая облачность+14°C96 %649 мм0.6 м/с2 %
    09:00Ясно и безоблачно+18°C73 %652 мм0.5 м/с2 %
    12:00Ясно и безоблачно+28°C38 %654 мм1.4 м/с2 %
    15:00Практически безоблачно+30°C37 %652 мм0.5 м/с13 %
    18:00Практически безоблачно+23°C82 %652 мм2.5 м/с19 %
    21:00Облачно с прояснениями+20°C96 %653 мм1.9 м/с15 %
  • 07декабря
    Среда
    +13°
    +31°
    Практически безоблачно
    ВремяПогодаТемператураВлажностьДавлениеВетер, м/сВероятность осадков
    00:00Облачно с прояснениями+19°C96 %653 мм1.8 м/с9 %
    03:00Пасмурно, сплошная облачность+18°C98 %652 мм0.5 м/с3 %
    06:00Облачно с прояснениями+17°C96 %651 мм0.7 м/с2 %
    09:00Ясно и безоблачно+19°C73 %654 мм1.0 м/с2 %
    12:00Ясно и безоблачно+28°C41 %655 мм1.6 м/с4 %
    15:00Практически безоблачно+30°C35 %653 мм1.1 м/с6 %
    18:00Практически безоблачно+24°C76 %653 мм2.2 м/с16 %
    21:00Небольшая облачность+20°C97 %654 мм1.5 м/с5 %
  • 08декабря
    Четверг
    +13°
    +31°
    Практически безоблачно
    ВремяПогодаТемператураВлажностьДавлениеВетер, м/сВероятность осадков
    00:00Облачно с прояснениями+19°C97 %654 мм0.6 м/с2 %
    03:00Облачно с прояснениями+18°C98 %653 мм0.6 м/с2 %
    06:00Небольшая облачность+15°C89 %652 мм1.3 м/с2 %
    09:00Ясно и безоблачно+18°C59 %653 мм1.7 м/с2 %
    12:00Ясно и безоблачно+27°C30 %655 мм1.7 м/с2 %
    15:00Практически безоблачно+30°C28 %653 мм0.2 м/с3 %
    18:00Ясно и безоблачно+24°C58 %652 мм1.6 м/с2 %
    21:00Ясно и безоблачно+20°C88 %652 мм0.7 м/с2 %
  • 09декабря
    Пятница
    +14°
    +31°
    Практически безоблачно
    ВремяПогодаТемператураВлажностьДавлениеВетер, м/сВероятность осадков
    00:00Практически безоблачно+17°C94 %651 мм0.1 м/с2 %
    03:00Небольшая облачность+15°C89 %650 мм0.6 м/с2 %
    06:00Практически безоблачно+14°C87 %650 мм1.1 м/с2 %
    09:00Ясно и безоблачно+18°C58 %653 мм1.8 м/с2 %
    12:00Ясно и безоблачно+27°C37 %654 мм1.7 м/с2 %
    15:00Практически безоблачно+30°C29 %652 мм1.3 м/с2 %
    18:00Ясно и безоблачно+24°C60 %651 мм1.6 м/с3 %
    21:00Ясно и безоблачно+19°C84 %652 мм1.3 м/с2 %
Мы используем cookies
Соглашаюсь